sensor_id;sensor_type;location;lat;lon;timestamp;P1;durP1;ratioP1;P2;durP2;ratioP2
69551;SDS011;63774;45.292;11.784;2023-08-24T00:02:39;14.90;;;10.00;;
69551;SDS011;63774;45.292;11.784;2023-08-24T00:05:05;13.40;;;10.50;;
69551;SDS011;63774;45.292;11.784;2023-08-24T00:07:42;13.70;;;10.70;;
69551;SDS011;63774;45.292;11.784;2023-08-24T00:10:08;17.30;;;11.00;;
69551;SDS011;63774;45.292;11.784;2023-08-24T00:12:34;12.70;;;10.10;;
69551;SDS011;63774;45.292;11.784;2023-08-24T00:15:08;13.00;;;10.70;;
69551;SDS011;63774;45.292;11.784;2023-08-24T00:17:34;13.90;;;11.40;;
69551;SDS011;63774;45.292;11.784;2023-08-24T00:20:04;14.30;;;10.40;;
69551;SDS011;63774;45.292;11.784;2023-08-24T00:22:35;14.40;;;11.20;;
69551;SDS011;63774;45.292;11.784;2023-08-24T00:25:07;15.30;;;11.20;;
69551;SDS011;63774;45.292;11.784;2023-08-24T00:27:39;15.30;;;11.00;;
69551;SDS011;63774;45.292;11.784;2023-08-24T00:30:07;15.10;;;11.00;;
69551;SDS011;63774;45.292;11.784;2023-08-24T00:32:38;14.00;;;10.60;;
69551;SDS011;63774;45.292;11.784;2023-08-24T00:35:08;17.90;;;10.90;;
69551;SDS011;63774;45.292;11.784;2023-08-24T00:37:39;22.00;;;12.70;;
69551;SDS011;63774;45.292;11.784;2023-08-24T00:40:08;17.70;;;11.00;;
69551;SDS011;63774;45.292;11.784;2023-08-24T00:42:40;15.50;;;11.30;;
69551;SDS011;63774;45.292;11.784;2023-08-24T00:45:15;13.30;;;10.50;;
69551;SDS011;63774;45.292;11.784;2023-08-24T00:47:45;14.90;;;11.30;;
69551;SDS011;63774;45.292;11.784;2023-08-24T00:50:12;15.80;;;11.60;;
69551;SDS011;63774;45.292;11.784;2023-08-24T00:52:42;14.00;;;11.00;;
69551;SDS011;63774;45.292;11.784;2023-08-24T00:55:08;16.20;;;10.70;;
69551;SDS011;63774;45.292;11.784;2023-08-24T00:57:38;16.70;;;11.00;;
69551;SDS011;63774;45.292;11.784;2023-08-24T01:00:08;13.30;;;10.60;;
69551;SDS011;63774;45.292;11.784;2023-08-24T01:02:37;14.40;;;11.70;;
69551;SDS011;63774;45.292;11.784;2023-08-24T01:05:03;16.00;;;11.20;;
69551;SDS011;63774;45.292;11.784;2023-08-24T01:07:32;14.70;;;11.10;;
69551;SDS011;63774;45.292;11.784;2023-08-24T01:10:00;13.60;;;10.80;;
69551;SDS011;63774;45.292;11.784;2023-08-24T01:18:04;14.10;;;11.10;;
69551;SDS011;63774;45.292;11.784;2023-08-24T01:20:38;14.10;;;10.80;;
69551;SDS011;63774;45.292;11.784;2023-08-24T01:26:13;12.90;;;10.80;;
69551;SDS011;63774;45.292;11.784;2023-08-24T01:28:45;15.00;;;10.40;;
69551;SDS011;63774;45.292;11.784;2023-08-24T01:31:13;13.60;;;11.10;;
69551;SDS011;63774;45.292;11.784;2023-08-24T01:33:40;13.20;;;10.20;;
69551;SDS011;63774;45.292;11.784;2023-08-24T01:36:06;14.20;;;10.10;;
69551;SDS011;63774;45.292;11.784;2023-08-24T01:38:32;13.10;;;10.40;;
69551;SDS011;63774;45.292;11.784;2023-08-24T01:43:42;14.70;;;10.60;;
69551;SDS011;63774;45.292;11.784;2023-08-24T01:46:11;11.80;;;9.70;;
69551;SDS011;63774;45.292;11.784;2023-08-24T01:48:43;13.30;;;10.30;;
69551;SDS011;63774;45.292;11.784;2023-08-24T01:51:15;13.20;;;9.90;;
69551;SDS011;63774;45.292;11.784;2023-08-24T01:53:44;12.90;;;10.10;;
69551;SDS011;63774;45.292;11.784;2023-08-24T01:56:11;11.80;;;10.10;;
69551;SDS011;63774;45.292;11.784;2023-08-24T01:58:38;13.00;;;9.80;;
69551;SDS011;63774;45.292;11.784;2023-08-24T02:01:07;13.20;;;9.80;;
69551;SDS011;63774;45.292;11.784;2023-08-24T02:03:42;12.80;;;9.90;;
69551;SDS011;63774;45.292;11.784;2023-08-24T02:08:55;14.10;;;10.10;;
69551;SDS011;63774;45.292;11.784;2023-08-24T02:11:20;12.60;;;9.90;;
69551;SDS011;63774;45.292;11.784;2023-08-24T02:13:46;14.50;;;9.90;;
69551;SDS011;63774;45.292;11.784;2023-08-24T02:16:11;13.80;;;10.40;;
69551;SDS011;63774;45.292;11.784;2023-08-24T02:19:00;11.10;;;9.50;;
69551;SDS011;63774;45.292;11.784;2023-08-24T02:21:26;14.60;;;10.20;;
69551;SDS011;63774;45.292;11.784;2023-08-24T02:23:54;12.90;;;9.50;;
69551;SDS011;63774;45.292;11.784;2023-08-24T02:26:20;12.70;;;10.10;;
69551;SDS011;63774;45.292;11.784;2023-08-24T02:28:46;12.40;;;9.90;;
69551;SDS011;63774;45.292;11.784;2023-08-24T02:31:11;16.40;;;10.50;;
69551;SDS011;63774;45.292;11.784;2023-08-24T02:33:37;12.40;;;9.90;;
69551;SDS011;63774;45.292;11.784;2023-08-24T02:36:02;13.80;;;10.30;;
69551;SDS011;63774;45.292;11.784;2023-08-24T02:38:28;16.50;;;10.30;;
69551;SDS011;63774;45.292;11.784;2023-08-24T02:41:27;14.40;;;10.40;;
69551;SDS011;63774;45.292;11.784;2023-08-24T02:43:48;13.70;;;10.10;;
69551;SDS011;63774;45.292;11.784;2023-08-24T02:46:17;13.40;;;10.40;;
69551;SDS011;63774;45.292;11.784;2023-08-24T02:48:44;12.10;;;10.20;;
69551;SDS011;63774;45.292;11.784;2023-08-24T02:51:10;14.20;;;10.80;;
69551;SDS011;63774;45.292;11.784;2023-08-24T02:53:36;13.30;;;10.20;;
69551;SDS011;63774;45.292;11.784;2023-08-24T02:56:02;13.70;;;10.40;;
69551;SDS011;63774;45.292;11.784;2023-08-24T02:58:28;15.90;;;10.40;;
69551;SDS011;63774;45.292;11.784;2023-08-24T03:00:56;12.70;;;10.20;;
69551;SDS011;63774;45.292;11.784;2023-08-24T03:03:25;14.40;;;10.50;;
69551;SDS011;63774;45.292;11.784;2023-08-24T03:08:46;16.30;;;10.60;;
69551;SDS011;63774;45.292;11.784;2023-08-24T03:11:14;12.90;;;10.20;;
69551;SDS011;63774;45.292;11.784;2023-08-24T03:13:40;12.50;;;10.60;;
69551;SDS011;63774;45.292;11.784;2023-08-24T03:16:06;13.10;;;10.20;;
69551;SDS011;63774;45.292;11.784;2023-08-24T03:18:34;14.90;;;10.80;;
69551;SDS011;63774;45.292;11.784;2023-08-24T03:21:00;15.00;;;10.70;;
69551;SDS011;63774;45.292;11.784;2023-08-24T03:23:29;13.60;;;10.30;;
69551;SDS011;63774;45.292;11.784;2023-08-24T03:25:55;15.70;;;10.70;;
69551;SDS011;63774;45.292;11.784;2023-08-24T03:28:23;13.00;;;10.60;;
69551;SDS011;63774;45.292;11.784;2023-08-24T03:30:54;16.00;;;10.70;;
69551;SDS011;63774;45.292;11.784;2023-08-24T03:33:21;12.30;;;10.30;;
69551;SDS011;63774;45.292;11.784;2023-08-24T03:35:49;13.10;;;9.80;;
69551;SDS011;63774;45.292;11.784;2023-08-24T03:38:15;12.80;;;10.80;;
69551;SDS011;63774;45.292;11.784;2023-08-24T03:40:40;14.40;;;10.70;;
69551;SDS011;63774;45.292;11.784;2023-08-24T03:43:06;13.10;;;10.30;;
69551;SDS011;63774;45.292;11.784;2023-08-24T03:45:31;13.40;;;9.90;;
69551;SDS011;63774;45.292;11.784;2023-08-24T03:47:57;13.30;;;10.00;;
69551;SDS011;63774;45.292;11.784;2023-08-24T03:50:26;13.10;;;10.30;;
69551;SDS011;63774;45.292;11.784;2023-08-24T03:52:57;12.70;;;10.40;;
69551;SDS011;63774;45.292;11.784;2023-08-24T03:55:23;12.20;;;10.40;;
69551;SDS011;63774;45.292;11.784;2023-08-24T03:57:51;12.80;;;10.20;;
69551;SDS011;63774;45.292;11.784;2023-08-24T04:00:19;11.10;;;9.80;;
69551;SDS011;63774;45.292;11.784;2023-08-24T04:05:33;12.80;;;9.90;;
69551;SDS011;63774;45.292;11.784;2023-08-24T04:08:02;15.90;;;11.10;;
69551;SDS011;63774;45.292;11.784;2023-08-24T04:10:30;14.60;;;11.00;;
69551;SDS011;63774;45.292;11.784;2023-08-24T04:12:59;13.60;;;10.60;;
69551;SDS011;63774;45.292;11.784;2023-08-24T04:15:25;12.30;;;10.30;;
69551;SDS011;63774;45.292;11.784;2023-08-24T04:17:54;14.10;;;10.80;;
69551;SDS011;63774;45.292;11.784;2023-08-24T04:20:22;12.50;;;10.40;;
69551;SDS011;63774;45.292;11.784;2023-08-24T04:22:47;13.30;;;10.40;;
69551;SDS011;63774;45.292;11.784;2023-08-24T04:25:13;12.50;;;10.20;;
69551;SDS011;63774;45.292;11.784;2023-08-24T04:27:38;13.60;;;10.30;;
69551;SDS011;63774;45.292;11.784;2023-08-24T04:30:04;12.80;;;10.20;;
69551;SDS011;63774;45.292;11.784;2023-08-24T04:32:31;14.30;;;10.60;;
69551;SDS011;63774;45.292;11.784;2023-08-24T04:35:00;14.20;;;10.60;;
69551;SDS011;63774;45.292;11.784;2023-08-24T04:37:26;13.20;;;9.70;;
69551;SDS011;63774;45.292;11.784;2023-08-24T04:39:51;11.90;;;9.80;;
69551;SDS011;63774;45.292;11.784;2023-08-24T04:42:17;13.30;;;10.40;;
69551;SDS011;63774;45.292;11.784;2023-08-24T04:44:42;13.50;;;10.50;;
69551;SDS011;63774;45.292;11.784;2023-08-24T04:47:08;13.10;;;10.20;;
69551;SDS011;63774;45.292;11.784;2023-08-24T04:49:37;13.50;;;10.00;;
69551;SDS011;63774;45.292;11.784;2023-08-24T04:52:03;14.60;;;10.60;;
69551;SDS011;63774;45.292;11.784;2023-08-24T04:54:29;13.80;;;10.50;;
69551;SDS011;63774;45.292;11.784;2023-08-24T04:56:58;14.30;;;10.10;;
69551;SDS011;63774;45.292;11.784;2023-08-24T04:59:26;11.70;;;9.80;;
69551;SDS011;63774;45.292;11.784;2023-08-24T05:01:52;15.80;;;10.70;;
69551;SDS011;63774;45.292;11.784;2023-08-24T05:04:33;12.50;;;9.70;;
69551;SDS011;63774;45.292;11.784;2023-08-24T05:06:58;15.40;;;9.80;;
69551;SDS011;63774;45.292;11.784;2023-08-24T05:09:27;15.30;;;9.80;;
69551;SDS011;63774;45.292;11.784;2023-08-24T05:11:54;13.80;;;10.10;;
69551;SDS011;63774;45.292;11.784;2023-08-24T05:14:20;12.00;;;10.10;;
69551;SDS011;63774;45.292;11.784;2023-08-24T05:16:48;14.40;;;10.10;;
69551;SDS011;63774;45.292;11.784;2023-08-24T05:19:14;12.70;;;9.90;;
69551;SDS011;63774;45.292;11.784;2023-08-24T05:21:39;14.30;;;10.00;;
69551;SDS011;63774;45.292;11.784;2023-08-24T05:24:04;12.90;;;9.70;;
69551;SDS011;63774;45.292;11.784;2023-08-24T05:26:30;12.50;;;10.20;;
69551;SDS011;63774;45.292;11.784;2023-08-24T05:28:56;13.70;;;9.30;;
69551;SDS011;63774;45.292;11.784;2023-08-24T05:31:21;13.20;;;10.00;;
69551;SDS011;63774;45.292;11.784;2023-08-24T05:33:47;13.00;;;9.80;;
69551;SDS011;63774;45.292;11.784;2023-08-24T05:36:12;11.20;;;9.60;;
69551;SDS011;63774;45.292;11.784;2023-08-24T05:38:37;13.10;;;9.50;;
69551;SDS011;63774;45.292;11.784;2023-08-24T05:41:03;13.70;;;10.00;;
69551;SDS011;63774;45.292;11.784;2023-08-24T05:43:28;12.90;;;10.40;;
69551;SDS011;63774;45.292;11.784;2023-08-24T05:45:54;13.50;;;10.00;;
69551;SDS011;63774;45.292;11.784;2023-08-24T05:48:21;11.60;;;9.20;;
69551;SDS011;63774;45.292;11.784;2023-08-24T05:50:46;16.00;;;9.80;;
69551;SDS011;63774;45.292;11.784;2023-08-24T05:53:12;13.30;;;10.20;;
69551;SDS011;63774;45.292;11.784;2023-08-24T05:55:38;12.00;;;9.40;;
69551;SDS011;63774;45.292;11.784;2023-08-24T05:58:03;14.20;;;10.70;;
69551;SDS011;63774;45.292;11.784;2023-08-24T06:00:29;14.80;;;10.20;;
69551;SDS011;63774;45.292;11.784;2023-08-24T06:02:55;12.40;;;10.00;;
69551;SDS011;63774;45.292;11.784;2023-08-24T06:05:20;13.40;;;9.80;;
69551;SDS011;63774;45.292;11.784;2023-08-24T06:07:45;13.00;;;10.20;;
69551;SDS011;63774;45.292;11.784;2023-08-24T06:10:11;13.90;;;9.70;;
69551;SDS011;63774;45.292;11.784;2023-08-24T06:12:37;15.60;;;10.20;;
69551;SDS011;63774;45.292;11.784;2023-08-24T06:15:12;13.00;;;10.10;;
69551;SDS011;63774;45.292;11.784;2023-08-24T06:17:38;13.70;;;10.30;;
69551;SDS011;63774;45.292;11.784;2023-08-24T06:20:04;13.50;;;10.60;;
69551;SDS011;63774;45.292;11.784;2023-08-24T06:22:29;14.90;;;10.30;;
69551;SDS011;63774;45.292;11.784;2023-08-24T06:24:55;14.20;;;10.30;;
69551;SDS011;63774;45.292;11.784;2023-08-24T06:27:24;12.80;;;10.50;;
69551;SDS011;63774;45.292;11.784;2023-08-24T06:29:50;13.70;;;9.60;;
69551;SDS011;63774;45.292;11.784;2023-08-24T06:32:15;13.70;;;10.10;;
69551;SDS011;63774;45.292;11.784;2023-08-24T06:34:41;14.90;;;10.70;;
69551;SDS011;63774;45.292;11.784;2023-08-24T06:37:06;14.90;;;10.00;;
69551;SDS011;63774;45.292;11.784;2023-08-24T06:39:32;15.70;;;10.00;;
69551;SDS011;63774;45.292;11.784;2023-08-24T06:41:57;15.90;;;10.00;;
69551;SDS011;63774;45.292;11.784;2023-08-24T06:44:23;13.90;;;9.70;;
69551;SDS011;63774;45.292;11.784;2023-08-24T06:46:48;12.50;;;10.10;;
69551;SDS011;63774;45.292;11.784;2023-08-24T06:49:14;13.50;;;10.20;;
69551;SDS011;63774;45.292;11.784;2023-08-24T06:51:39;12.50;;;10.00;;
69551;SDS011;63774;45.292;11.784;2023-08-24T06:54:04;13.50;;;10.90;;
69551;SDS011;63774;45.292;11.784;2023-08-24T06:56:30;12.40;;;9.70;;
69551;SDS011;63774;45.292;11.784;2023-08-24T06:58:55;14.00;;;10.10;;
69551;SDS011;63774;45.292;11.784;2023-08-24T07:01:20;14.90;;;10.50;;
69551;SDS011;63774;45.292;11.784;2023-08-24T07:03:46;13.60;;;10.80;;
69551;SDS011;63774;45.292;11.784;2023-08-24T07:06:12;14.70;;;10.50;;
69551;SDS011;63774;45.292;11.784;2023-08-24T07:08:37;13.00;;;10.50;;
69551;SDS011;63774;45.292;11.784;2023-08-24T07:11:03;13.90;;;10.20;;
69551;SDS011;63774;45.292;11.784;2023-08-24T07:13:28;14.90;;;10.30;;
69551;SDS011;63774;45.292;11.784;2023-08-24T07:15:54;12.60;;;10.30;;
69551;SDS011;63774;45.292;11.784;2023-08-24T07:18:20;13.60;;;10.70;;
69551;SDS011;63774;45.292;11.784;2023-08-24T07:20:46;12.90;;;10.40;;
69551;SDS011;63774;45.292;11.784;2023-08-24T07:23:12;16.30;;;10.80;;
69551;SDS011;63774;45.292;11.784;2023-08-24T07:25:37;16.30;;;10.40;;
69551;SDS011;63774;45.292;11.784;2023-08-24T07:28:03;14.70;;;10.30;;
69551;SDS011;63774;45.292;11.784;2023-08-24T07:30:30;14.70;;;10.80;;
69551;SDS011;63774;45.292;11.784;2023-08-24T07:32:56;13.90;;;10.70;;
69551;SDS011;63774;45.292;11.784;2023-08-24T07:35:22;16.10;;;10.60;;
69551;SDS011;63774;45.292;11.784;2023-08-24T07:37:53;12.20;;;10.10;;
69551;SDS011;63774;45.292;11.784;2023-08-24T07:40:18;12.30;;;9.70;;
69551;SDS011;63774;45.292;11.784;2023-08-24T07:42:48;14.30;;;10.40;;
69551;SDS011;63774;45.292;11.784;2023-08-24T07:45:21;16.50;;;10.10;;
69551;SDS011;63774;45.292;11.784;2023-08-24T07:47:50;12.70;;;10.30;;
69551;SDS011;63774;45.292;11.784;2023-08-24T07:50:15;13.00;;;10.10;;
69551;SDS011;63774;45.292;11.784;2023-08-24T07:52:41;11.60;;;9.60;;
69551;SDS011;63774;45.292;11.784;2023-08-24T07:55:07;12.20;;;10.30;;
69551;SDS011;63774;45.292;11.784;2023-08-24T07:57:33;11.40;;;9.90;;
69551;SDS011;63774;45.292;11.784;2023-08-24T07:59:59;12.20;;;9.80;;
69551;SDS011;63774;45.292;11.784;2023-08-24T08:02:25;13.50;;;9.40;;
69551;SDS011;63774;45.292;11.784;2023-08-24T08:04:50;15.60;;;10.30;;
69551;SDS011;63774;45.292;11.784;2023-08-24T08:07:17;14.40;;;10.00;;
69551;SDS011;63774;45.292;11.784;2023-08-24T08:09:42;11.80;;;9.80;;
69551;SDS011;63774;45.292;11.784;2023-08-24T08:12:07;13.10;;;10.10;;
69551;SDS011;63774;45.292;11.784;2023-08-24T08:14:33;13.00;;;9.80;;
69551;SDS011;63774;45.292;11.784;2023-08-24T08:16:58;13.70;;;9.90;;
69551;SDS011;63774;45.292;11.784;2023-08-24T08:19:36;16.10;;;10.30;;
69551;SDS011;63774;45.292;11.784;2023-08-24T08:22:03;11.60;;;9.70;;
69551;SDS011;63774;45.292;11.784;2023-08-24T08:24:29;13.10;;;10.30;;
69551;SDS011;63774;45.292;11.784;2023-08-24T08:26:55;13.90;;;10.20;;
69551;SDS011;63774;45.292;11.784;2023-08-24T08:29:24;13.10;;;9.90;;
69551;SDS011;63774;45.292;11.784;2023-08-24T08:31:49;14.80;;;9.80;;
69551;SDS011;63774;45.292;11.784;2023-08-24T08:34:15;12.50;;;9.70;;
69551;SDS011;63774;45.292;11.784;2023-08-24T08:36:40;12.20;;;9.40;;
69551;SDS011;63774;45.292;11.784;2023-08-24T08:39:05;12.20;;;9.50;;
69551;SDS011;63774;45.292;11.784;2023-08-24T08:41:42;13.30;;;8.70;;
69551;SDS011;63774;45.292;11.784;2023-08-24T08:44:09;12.50;;;9.10;;
69551;SDS011;63774;45.292;11.784;2023-08-24T08:46:41;12.20;;;9.10;;
69551;SDS011;63774;45.292;11.784;2023-08-24T08:49:08;10.90;;;9.40;;
69551;SDS011;63774;45.292;11.784;2023-08-24T08:51:37;11.40;;;9.10;;
69551;SDS011;63774;45.292;11.784;2023-08-24T08:54:09;13.50;;;9.50;;
69551;SDS011;63774;45.292;11.784;2023-08-24T08:56:34;11.40;;;9.20;;
69551;SDS011;63774;45.292;11.784;2023-08-24T08:59:00;12.00;;;8.80;;
69551;SDS011;63774;45.292;11.784;2023-08-24T09:01:28;12.50;;;8.90;;
69551;SDS011;63774;45.292;11.784;2023-08-24T09:03:55;11.10;;;8.80;;
69551;SDS011;63774;45.292;11.784;2023-08-24T09:06:22;10.70;;;8.90;;
69551;SDS011;63774;45.292;11.784;2023-08-24T09:08:53;13.50;;;9.70;;
69551;SDS011;63774;45.292;11.784;2023-08-24T09:11:26;13.80;;;9.90;;
69551;SDS011;63774;45.292;11.784;2023-08-24T09:13:52;12.30;;;9.90;;
69551;SDS011;63774;45.292;11.784;2023-08-24T09:16:19;12.20;;;10.10;;
69551;SDS011;63774;45.292;11.784;2023-08-24T09:18:45;13.20;;;10.00;;
69551;SDS011;63774;45.292;11.784;2023-08-24T09:21:13;13.50;;;10.60;;
69551;SDS011;63774;45.292;11.784;2023-08-24T09:23:43;12.00;;;9.90;;
69551;SDS011;63774;45.292;11.784;2023-08-24T09:26:12;11.30;;;9.10;;
69551;SDS011;63774;45.292;11.784;2023-08-24T09:28:38;12.90;;;10.20;;
69551;SDS011;63774;45.292;11.784;2023-08-24T09:31:08;13.60;;;9.40;;
69551;SDS011;63774;45.292;11.784;2023-08-24T09:33:34;12.70;;;9.30;;
69551;SDS011;63774;45.292;11.784;2023-08-24T09:36:07;11.10;;;9.30;;
69551;SDS011;63774;45.292;11.784;2023-08-24T09:38:32;12.20;;;9.70;;
69551;SDS011;63774;45.292;11.784;2023-08-24T09:41:10;12.80;;;9.50;;
69551;SDS011;63774;45.292;11.784;2023-08-24T09:43:36;15.60;;;10.70;;
69551;SDS011;63774;45.292;11.784;2023-08-24T09:46:01;13.00;;;9.60;;
69551;SDS011;63774;45.292;11.784;2023-08-24T09:48:28;11.50;;;10.20;;
69551;SDS011;63774;45.292;11.784;2023-08-24T09:50:53;12.70;;;9.50;;
69551;SDS011;63774;45.292;11.784;2023-08-24T09:53:22;12.60;;;10.40;;
69551;SDS011;63774;45.292;11.784;2023-08-24T09:55:56;12.90;;;10.10;;
69551;SDS011;63774;45.292;11.784;2023-08-24T09:58:27;13.60;;;10.10;;
69551;SDS011;63774;45.292;11.784;2023-08-24T10:00:54;13.00;;;9.80;;
69551;SDS011;63774;45.292;11.784;2023-08-24T10:03:32;11.90;;;9.60;;
69551;SDS011;63774;45.292;11.784;2023-08-24T10:05:59;14.20;;;9.90;;
69551;SDS011;63774;45.292;11.784;2023-08-24T10:08:29;14.60;;;10.50;;
69551;SDS011;63774;45.292;11.784;2023-08-24T10:11:01;12.30;;;9.80;;
69551;SDS011;63774;45.292;11.784;2023-08-24T10:13:36;15.30;;;10.20;;
69551;SDS011;63774;45.292;11.784;2023-08-24T10:16:07;14.30;;;9.60;;
69551;SDS011;63774;45.292;11.784;2023-08-24T10:18:33;12.20;;;10.10;;
69551;SDS011;63774;45.292;11.784;2023-08-24T10:21:01;19.60;;;10.50;;
69551;SDS011;63774;45.292;11.784;2023-08-24T10:23:29;16.50;;;10.70;;
69551;SDS011;63774;45.292;11.784;2023-08-24T10:25:55;17.40;;;10.30;;
69551;SDS011;63774;45.292;11.784;2023-08-24T10:28:21;19.90;;;10.40;;
69551;SDS011;63774;45.292;11.784;2023-08-24T10:30:50;17.20;;;10.50;;
69551;SDS011;63774;45.292;11.784;2023-08-24T10:33:17;14.90;;;10.20;;
69551;SDS011;63774;45.292;11.784;2023-08-24T10:35:43;15.00;;;10.50;;
69551;SDS011;63774;45.292;11.784;2023-08-24T10:38:30;15.70;;;11.00;;
69551;SDS011;63774;45.292;11.784;2023-08-24T10:41:06;16.90;;;10.20;;
69551;SDS011;63774;45.292;11.784;2023-08-24T10:43:48;13.50;;;10.30;;
69551;SDS011;63774;45.292;11.784;2023-08-24T10:46:14;14.40;;;10.70;;
69551;SDS011;63774;45.292;11.784;2023-08-24T10:56:16;13.70;;;10.00;;
69551;SDS011;63774;45.292;11.784;2023-08-24T10:58:43;15.10;;;10.20;;
69551;SDS011;63774;45.292;11.784;2023-08-24T11:01:21;15.50;;;10.70;;
69551;SDS011;63774;45.292;11.784;2023-08-24T11:04:10;15.10;;;10.30;;
69551;SDS011;63774;45.292;11.784;2023-08-24T11:06:52;14.70;;;10.10;;
69551;SDS011;63774;45.292;11.784;2023-08-24T11:09:46;14.10;;;10.10;;
69551;SDS011;63774;45.292;11.784;2023-08-24T11:12:12;15.20;;;9.80;;
69551;SDS011;63774;45.292;11.784;2023-08-24T11:14:51;12.80;;;9.60;;
69551;SDS011;63774;45.292;11.784;2023-08-24T11:17:23;13.90;;;9.50;;
69551;SDS011;63774;45.292;11.784;2023-08-24T11:19:56;13.40;;;9.50;;
69551;SDS011;63774;45.292;11.784;2023-08-24T11:22:21;10.70;;;9.20;;
69551;SDS011;63774;45.292;11.784;2023-08-24T11:24:53;12.20;;;9.10;;
69551;SDS011;63774;45.292;11.784;2023-08-24T11:27:20;12.90;;;9.60;;
69551;SDS011;63774;45.292;11.784;2023-08-24T11:30:05;13.20;;;9.80;;
69551;SDS011;63774;45.292;11.784;2023-08-24T11:32:35;11.60;;;8.90;;
69551;SDS011;63774;45.292;11.784;2023-08-24T11:35:00;10.60;;;9.30;;
69551;SDS011;63774;45.292;11.784;2023-08-24T11:37:29;12.60;;;9.10;;
69551;SDS011;63774;45.292;11.784;2023-08-24T11:39:55;11.50;;;9.30;;
69551;SDS011;63774;45.292;11.784;2023-08-24T11:42:20;12.10;;;9.40;;
69551;SDS011;63774;45.292;11.784;2023-08-24T11:44:49;14.00;;;9.10;;
69551;SDS011;63774;45.292;11.784;2023-08-24T11:47:15;10.70;;;9.00;;
69551;SDS011;63774;45.292;11.784;2023-08-24T11:49:44;10.60;;;8.90;;
69551;SDS011;63774;45.292;11.784;2023-08-24T11:52:09;11.50;;;8.70;;
69551;SDS011;63774;45.292;11.784;2023-08-24T11:54:36;11.00;;;9.30;;
69551;SDS011;63774;45.292;11.784;2023-08-24T11:57:07;12.40;;;9.10;;
69551;SDS011;63774;45.292;11.784;2023-08-24T11:59:35;11.00;;;8.90;;
69551;SDS011;63774;45.292;11.784;2023-08-24T12:02:02;11.30;;;8.80;;
69551;SDS011;63774;45.292;11.784;2023-08-24T12:04:51;10.40;;;8.60;;
69551;SDS011;63774;45.292;11.784;2023-08-24T12:07:16;10.50;;;9.10;;
69551;SDS011;63774;45.292;11.784;2023-08-24T12:09:46;10.40;;;8.70;;
69551;SDS011;63774;45.292;11.784;2023-08-24T12:12:21;10.50;;;8.70;;
69551;SDS011;63774;45.292;11.784;2023-08-24T12:15:06;12.40;;;8.60;;
69551;SDS011;63774;45.292;11.784;2023-08-24T12:17:47;11.60;;;8.60;;
69551;SDS011;63774;45.292;11.784;2023-08-24T12:20:25;10.40;;;8.50;;
69551;SDS011;63774;45.292;11.784;2023-08-24T12:22:53;9.70;;;8.00;;
69551;SDS011;63774;45.292;11.784;2023-08-24T12:25:23;10.10;;;8.20;;
69551;SDS011;63774;45.292;11.784;2023-08-24T12:27:52;9.80;;;8.50;;
69551;SDS011;63774;45.292;11.784;2023-08-24T12:33:41;9.70;;;8.30;;
69551;SDS011;63774;45.292;11.784;2023-08-24T12:36:11;9.10;;;7.80;;
69551;SDS011;63774;45.292;11.784;2023-08-24T12:38:40;12.20;;;8.30;;
69551;SDS011;63774;45.292;11.784;2023-08-24T12:41:10;10.60;;;8.30;;
69551;SDS011;63774;45.292;11.784;2023-08-24T12:43:35;10.60;;;7.80;;
69551;SDS011;63774;45.292;11.784;2023-08-24T12:46:02;10.50;;;7.90;;
69551;SDS011;63774;45.292;11.784;2023-08-24T12:48:30;9.30;;;8.00;;
69551;SDS011;63774;45.292;11.784;2023-08-24T12:50:56;9.70;;;8.00;;
69551;SDS011;63774;45.292;11.784;2023-08-24T12:53:25;12.10;;;8.30;;
69551;SDS011;63774;45.292;11.784;2023-08-24T12:55:57;10.40;;;8.10;;
69551;SDS011;63774;45.292;11.784;2023-08-24T12:58:22;12.70;;;7.70;;
69551;SDS011;63774;45.292;11.784;2023-08-24T13:00:50;8.90;;;7.70;;
69551;SDS011;63774;45.292;11.784;2023-08-24T13:03:16;10.10;;;8.40;;
69551;SDS011;63774;45.292;11.784;2023-08-24T13:05:44;9.80;;;7.50;;
69551;SDS011;63774;45.292;11.784;2023-08-24T13:08:13;11.10;;;8.10;;
69551;SDS011;63774;45.292;11.784;2023-08-24T13:10:42;10.40;;;7.80;;
69551;SDS011;63774;45.292;11.784;2023-08-24T13:13:10;9.70;;;8.00;;
69551;SDS011;63774;45.292;11.784;2023-08-24T13:15:39;10.10;;;7.70;;
69551;SDS011;63774;45.292;11.784;2023-08-24T13:18:07;11.70;;;7.80;;
69551;SDS011;63774;45.292;11.784;2023-08-24T13:20:38;9.60;;;8.20;;
69551;SDS011;63774;45.292;11.784;2023-08-24T13:23:03;9.70;;;7.80;;
69551;SDS011;63774;45.292;11.784;2023-08-24T13:25:33;10.50;;;7.90;;
69551;SDS011;63774;45.292;11.784;2023-08-24T13:28:14;9.10;;;7.40;;
69551;SDS011;63774;45.292;11.784;2023-08-24T13:30:52;11.70;;;7.60;;
69551;SDS011;63774;45.292;11.784;2023-08-24T13:33:18;9.90;;;7.70;;
69551;SDS011;63774;45.292;11.784;2023-08-24T13:35:44;9.50;;;7.60;;
69551;SDS011;63774;45.292;11.784;2023-08-24T13:38:10;9.30;;;7.20;;
69551;SDS011;63774;45.292;11.784;2023-08-24T13:40:36;8.60;;;7.30;;
69551;SDS011;63774;45.292;11.784;2023-08-24T13:43:04;9.30;;;7.80;;
69551;SDS011;63774;45.292;11.784;2023-08-24T13:45:30;9.70;;;7.50;;
69551;SDS011;63774;45.292;11.784;2023-08-24T13:47:57;9.60;;;7.20;;
69551;SDS011;63774;45.292;11.784;2023-08-24T13:50:22;9.00;;;7.10;;
69551;SDS011;63774;45.292;11.784;2023-08-24T13:52:48;9.80;;;7.50;;
69551;SDS011;63774;45.292;11.784;2023-08-24T13:55:17;9.40;;;7.40;;
69551;SDS011;63774;45.292;11.784;2023-08-24T13:57:42;8.80;;;7.20;;
69551;SDS011;63774;45.292;11.784;2023-08-24T14:00:08;9.20;;;7.20;;
69551;SDS011;63774;45.292;11.784;2023-08-24T14:02:34;9.00;;;7.20;;
69551;SDS011;63774;45.292;11.784;2023-08-24T14:05:00;9.50;;;7.10;;
69551;SDS011;63774;45.292;11.784;2023-08-24T14:07:26;9.20;;;7.30;;
69551;SDS011;63774;45.292;11.784;2023-08-24T14:09:51;9.50;;;7.30;;
69551;SDS011;63774;45.292;11.784;2023-08-24T14:12:17;9.30;;;6.70;;
69551;SDS011;63774;45.292;11.784;2023-08-24T14:14:45;8.50;;;6.90;;
69551;SDS011;63774;45.292;11.784;2023-08-24T14:17:17;10.40;;;7.10;;
69551;SDS011;63774;45.292;11.784;2023-08-24T14:19:42;8.10;;;6.80;;
69551;SDS011;63774;45.292;11.784;2023-08-24T14:22:08;7.60;;;6.50;;
69551;SDS011;63774;45.292;11.784;2023-08-24T14:24:39;9.60;;;6.80;;
69551;SDS011;63774;45.292;11.784;2023-08-24T14:27:08;7.30;;;6.20;;
69551;SDS011;63774;45.292;11.784;2023-08-24T14:29:33;8.50;;;6.40;;
69551;SDS011;63774;45.292;11.784;2023-08-24T14:31:59;10.30;;;6.80;;
69551;SDS011;63774;45.292;11.784;2023-08-24T14:34:33;7.40;;;6.30;;
69551;SDS011;63774;45.292;11.784;2023-08-24T14:36:59;8.90;;;6.40;;
69551;SDS011;63774;45.292;11.784;2023-08-24T14:39:24;7.70;;;6.70;;
69551;SDS011;63774;45.292;11.784;2023-08-24T14:41:50;8.50;;;6.00;;
69551;SDS011;63774;45.292;11.784;2023-08-24T14:44:15;8.10;;;6.50;;
69551;SDS011;63774;45.292;11.784;2023-08-24T14:46:44;10.00;;;7.40;;
69551;SDS011;63774;45.292;11.784;2023-08-24T14:49:21;7.60;;;6.50;;
69551;SDS011;63774;45.292;11.784;2023-08-24T14:51:50;10.70;;;6.60;;
69551;SDS011;63774;45.292;11.784;2023-08-24T14:54:15;10.40;;;6.60;;